Chipiona, Spain
Current Conditions -  °F | °C
As of 3:00 PM on Wednesday 26 Nov 2014 (Local Time) from LERT Reporting Station
Scattered Clouds Scattered Clouds  
Wind Chill: 64°   Ceiling: Unl
Heat Index: 64°   Visibility: 6mi
Dew Point: 54°   Wind: 8mph
Humidity: 68%   Direction: 170°S
Pressure: 29.85"   Gusts: NA
Location:  36.74°N, 6.44°W
Report Text: LERT 261400Z 17007KT 140V200 9999 SCT025 18/12 Q1011 NOSIG
Loading
Personal Weather Stations






























Interactive Weather Map New forecast layout! Learn more

10-Day Weather Forecast

Advertisements
Track Severe Weather on mobile